Finales Départementales des Jeunes - J1 - PAS-DE-CALAIS

Compétition Départementale

LENS

Le Dimanche 08 Mai 2011

Bassin de 50m

100 Dos Messieurs

Séries

Nom Année Temps Pts Club Pays
1 KLAUS Thibault 1998 1:18:66 694 USO BRUAY-LA-BUISSIERE FRA
2 RENUY Floryan 1998 1:20:66 649 SN LENS FRA
3 GOSSELIN Antony 1999 1:21:97 620 US MONTREUIL-SUR-MER FRA
4 WASSELIN Théo 1998 1:22:44 610 DAUPHINS ST-OMER FRA
5 VANHOUTTE Victor 1998 1:22:50 608 SC BOULOGNE-SUR-MER FRA
6 BOILEAU Achille 1998 1:23:00 598 DAUPHINS ST-OMER FRA
7 JAYET Axel 1998 1:23:03 597 STADE BÉTHUNE PÉLICAN CLUB FRA
8 GAILLARD Theo 1999 1:24:68 562 AUCHEL NATATION FRA
9 HANQUIEZ Theo 1998 1:24:75 561 SC BOULOGNE-SUR-MER FRA
10 LAMY Hugo 1999 1:24:88 558 SN LENS FRA
11 DELMOTTE Loic 1999 1:24:90 558 SC BOULOGNE-SUR-MER FRA
12 FROISSART Aurélien 1998 1:25:44 547 US MONTREUIL-SUR-MER FRA
13 JAYET Zakari 2000 1:25:44 547 STADE BÉTHUNE PÉLICAN CLUB FRA
14 LENOIR Alexandre 1998 1:26:50 525 USO BRUAY-LA-BUISSIERE FRA
15 LOUVET Antoine 1998 1:26:59 523 CALAIS NATATION FRA
16 DUFOUR Victor 1999 1:26:81 519 AUCHEL NATATION FRA
17 MASSON Maxime 1998 1:27:21 511 DAUPHINS ST-OMER FRA
18 LENOIR Antoine 2000 1:28:73 482 USO BRUAY-LA-BUISSIERE FRA
19 DUHAMEL Gauthier 1998 1:28:91 478 AUCHEL NATATION FRA
20 CLAUDEL Valentin 1999 1:29:12 474 CALAIS NATATION FRA
21 CORNU Louis 2000 1:29:45 468 BERCK NATATION FRA
22 LAMON Maty 1999 1:30:12 455 CN COURRIÈRES FRA
23 FONTAINE Rodrigue 1999 1:30:23 453 CN DIVION FRA
24 BARON Axel 1998 1:30:45 449 CALAIS NATATION FRA
25 DELPLANQUE David 2000 1:30:68 445 RACING CLUB ARRAS FRA
26 TROLLÉ Pierre 2000 1:31:93 422 US MONTREUIL-SUR-MER FRA
27 LAMPIN Leo 1998 1:32:48 412 SN LENS FRA
28 BUQUET Mathis 2000 1:32:48 412 SN HARNES FRA
29 WINOCK Hugo 2000 1:32:81 407 DAUPHINS ST-OMER FRA
30 HURTEVENT Tom 1999 1:32:97 404 CALAIS NATATION FRA
31 DEHARTE Leopold 1998 1:33:47 395 CALAIS NATATION FRA
32 MRUGALSKI Arthur 1998 1:33:54 394 RACING CLUB ARRAS FRA
33 MATTON Léo 1998 1:33:75 390 CALAIS NATATION FRA
34 CHARLEMAGNE Leo 1998 1:35:77 356 ASL CANETONS LILLERS FRA
35 ABACHIN Gregoire 1998 1:36:62 342 CALAIS NATATION FRA
36 BUFFAUT Adam 2000 1:36:74 340 SN LENS FRA
37 BERNARD Erwin 2000 1:36:76 340 SN HARNES FRA
38 GONTIER Adrien 2000 1:37:19 333 CALAIS NATATION FRA
39 FIEF Tristan 2001 1:37:70 325 ENC ACHICOURT FRA
40 MATUSZAK Leo 2001 1:37:73 325 STADE BÉTHUNE PÉLICAN CLUB FRA
41 SIMON Balthazar 2001 1:37:75 324 SC BOULOGNE-SUR-MER FRA
42 HUNET Marvin 2001 1:38:49 313 SN LENS FRA
43 WATEL Baptiste 1998 1:38:68 310 AUCHEL NATATION FRA
44 LEROUX Esteban 2000 1:38:81 308 SC BOULOGNE-SUR-MER FRA
45 BECQUET Vianney 1999 1:38:89 307 US MONTREUIL-SUR-MER FRA
46 DELIE Martin 2001 1:39:16 302 SC BOULOGNE-SUR-MER FRA
47 MAGNIER Arthur 2001 1:39:87 292 DAUPHINS ST-OMER FRA
48 FLEJSZAR Clement 2001 1:39:97 290 SN LENS FRA
49 MILLE Thomas 2001 1:40:19 287 CALAIS NATATION FRA
50 VILLAYES Julien 2000 1:40:80 278 SN LENS FRA
51 SAULAY Hippolyte 2000 1:41:16 273 RACING CLUB ARRAS FRA
52 WATEL Thibaut 2001 1:41:17 273 USO BRUAY-LA-BUISSIERE FRA
53 THULLIER Gaëtan 2001 1:41:93 262 STADE BÉTHUNE PÉLICAN CLUB FRA
54 PROBST Théo 2000 1:42:15 259 CALAIS NATATION FRA
55 PLAHIERS Nicolas 2000 1:43:36 242 SN LENS FRA
56 DEWILDE Colin 2000 1:43:44 241 CN COURRIÈRES FRA
57 LHERBIER Hugo 2000 1:43:98 234 SN LENS FRA
58 DARRAS Edouard 2000 1:44:54 226 CALAIS NATATION FRA
59 SENECHAL Théo 2000 1:44:61 225 SN HARNES FRA
60 CONSTANT Jules 2001 1:44:94 221 DAUPHINS ST-OMER FRA
61 LEQUEUX Antonin 2001 1:44:95 221 US MONTREUIL-SUR-MER FRA
62 COCQUERELLE Antoine 2000 1:45:67 212 SN HARNES FRA
63 DELETTRE Antoine 2000 1:45:68 212 AUCHEL NATATION FRA
64 RENAULT Clement 2000 1:45:77 210 CALAIS NATATION FRA
65 LELEU Baptiste 2001 1:45:85 209 CALAIS NATATION FRA
66 MAY Thibault 2001 1:46:47 202 DAUPHINS ST-OMER FRA
67 DESBONNETS Simon 2000 1:46:84 197 US MONTREUIL-SUR-MER FRA
68 LOUVET Loïc 2001 1:46:93 196 CALAIS NATATION FRA
69 SAUDEMONT Felix 2001 1:48:00 183 ENC ACHICOURT FRA
70 COPPIN Baptiste 2001 1:50:70 153 CALAIS NATATION FRA
71 RENAULT Martin 2001 1:52:67 132 CALAIS NATATION FRA
72 HEMBERT Lucas 2001 1:53:60 123 CALAIS NATATION FRA
73 DESFONTAINES Bastien 2001 1:56:46 97 AUCHEL NATATION FRA
74 MORTIER Joseph 2000 1:56:66 95 AUCHEL NATATION FRA
75 JOUANEN Thomas 2001 2:02:20 54 SC BOULOGNE-SUR-MER FRA
RACING CLUB ARRAS